Latest Weather Observations for Shark Bay Airport

IDW60801

Issued at 3:05 pm WST Tuesday 16 September 2014 (issued every 30 minutes, with the page automatically refreshed every 10 minutes)

About weather observations | Map of weather stations | Latest weather observations for WA | Other Formats
Station Details ID: 006105 Name: SHARK BAY AIRPORT Lat: -25.89 Lon: 113.58 Height: 33.8 m
Data from the previous 72 hours. | See also: Recent months for locations in Western Australia
Date/Time
WST
Temp
°C
App
Temp
°C
Dew
Point
Rel
Hum
%
Delta-T
°C
Wind Press
QNH
hPa
Press
MSL
hPa
Rain
since 9 am
mm
Dir
 
Spd
km/h
Gust
km/h
Spd
kts
Gust
kts
16/03:00pm 29.7 24.1 3.6 19 13.3 WSW 22 30 12 16 1009.1 1009.0 -
16/02:30pm 29.6 23.6 3.5 19 13.2 SW 24 32 13 17 1009.3 1009.2 -
16/02:00pm 30.0 25.6 4.6 20 13.2 S 17 24 9 13 1009.5 1009.4 -
16/01:30pm 28.7 22.5 4.2 21 12.5 SW 26 35 14 19 1009.6 1009.5 -
16/12:30pm 27.3 20.6 5.6 25 11.2 SSW 30 37 16 20 1010.3 1010.2 0.0
16/12:00pm 26.8 19.9 4.6 24 11.3 SSW 30 39 16 21 1010.6 1010.5 0.0
16/11:54am 27.2 20.0 4.9 24 11.4 SSW 32 39 17 21 1010.6 1010.5 0.0
16/11:30am 28.1 24.5 5.0 23 11.9 S 13 20 7 11 1010.8 1010.7 0.0
16/11:00am 27.1 22.3 4.8 24 11.4 S 19 24 10 13 1011.1 1011.0 0.0
16/10:30am 26.3 21.3 4.7 25 10.9 S 20 30 11 16 1011.6 1011.5 0.0
16/10:00am 25.6 20.9 5.2 27 10.4 S 19 28 10 15 1011.8 1011.7 0.0
16/09:30am 24.3 19.4 4.1 27 10.0 S 19 28 10 15 1012.0 1011.9 0.0
16/09:00am 22.9 18.5 4.9 31 9.0 S 17 24 9 13 1012.4 1012.3 0.0
16/08:30am 21.8 17.1 6.1 36 7.9 S 20 28 11 15 1012.3 1012.2 0.0
16/08:00am 20.5 16.4 8.5 46 6.3 S 20 32 11 17 1012.5 1012.4 0.0
16/07:30am 18.9 16.0 9.7 55 4.9 SSE 15 20 8 11 1012.2 1012.1 0.0
16/07:00am 16.9 14.8 9.8 63 3.7 S 11 15 6 8 1011.9 1011.8 0.0
16/06:30am 16.2 13.7 9.6 65 3.4 S 13 19 7 10 1011.5 1011.4 0.0
16/06:00am 16.4 13.6 10.0 66 3.4 SSE 15 20 8 11 1011.3 1011.2 0.0
16/05:30am 16.4 13.5 10.9 70 2.9 S 17 24 9 13 1011.2 1011.1 0.0
16/05:00am 16.2 14.0 10.7 70 2.9 S 13 17 7 9 1011.0 1010.9 0.0
16/04:30am 17.2 13.7 11.0 67 3.3 SSE 20 35 11 19 1010.4 1010.3 0.0
16/04:00am 17.6 13.0 11.2 66 3.5 SSE 26 35 14 19 1010.4 1010.3 0.0
16/03:30am 18.1 14.1 11.9 67 3.4 SSE 24 35 13 19 1010.9 1010.8 0.0
16/03:00am 18.5 14.8 12.7 69 3.3 S 24 37 13 20 1011.4 1011.3 0.0
16/02:30am 18.6 15.1 13.5 72 2.9 S 24 35 13 19 1011.7 1011.6 0.0
16/02:00am 18.7 15.7 13.8 73 2.8 S 22 32 12 17 1012.0 1011.9 0.0
16/01:30am 18.8 16.5 14.1 74 2.7 S 19 28 10 15 1012.4 1012.3 0.0
16/01:00am 19.0 16.2 14.3 74 2.7 S 22 32 12 17 1012.7 1012.6 0.0
16/12:30am 19.2 17.0 14.9 76 2.5 S 20 28 11 15 1013.1 1013.0 0.0
16/12:00am 19.4 16.8 14.9 75 2.6 S 22 32 12 17 1013.2 1013.1 0.0
 
Date/Time
WST
Temp
°C
App
Temp
°C
Dew
Point
Rel
Hum
%
Delta-T
°C
Wind Press
QNH
hPa
Press
MSL
hPa
Rain
since 9 am
mm
Dir
 
Spd
km/h
Gust
km/h
Spd
kts
Gust
kts
15/11:30pm 19.6 17.0 14.8 74 2.8 S 22 32 12 17 1013.3 1013.2 0.0
15/11:00pm 19.8 16.4 14.8 73 2.9 S 26 35 14 19 1013.4 1013.3 0.0
15/10:30pm 20.0 16.3 15.0 73 2.9 S 28 39 15 21 1013.7 1013.6 0.0
15/10:00pm 20.2 16.2 15.2 73 3.0 S 30 39 16 21 1013.7 1013.6 0.0
15/09:30pm 20.4 17.0 14.7 70 3.3 S 26 39 14 21 1013.9 1013.8 0.0
15/09:00pm 20.4 16.9 14.5 69 3.4 S 26 35 14 19 1013.7 1013.6 0.0
15/08:30pm 20.7 16.9 14.6 68 3.6 S 28 41 15 22 1013.6 1013.5 0.0
15/08:00pm 20.8 18.1 14.7 68 3.6 S 22 32 12 17 1013.5 1013.4 0.0
15/07:30pm 21.1 17.6 14.5 66 3.9 S 26 37 14 20 1013.2 1013.1 0.0
15/07:00pm 21.6 18.6 14.7 65 4.1 S 24 35 13 19 1013.1 1013.0 0.0
15/06:30pm 22.6 18.9 13.9 58 5.1 S 26 35 14 19 1012.9 1012.8 0.0
15/06:00pm 24.7 20.0 10.6 41 7.9 S 26 39 14 21 1012.5 1012.4 0.0
15/05:30pm 27.2 21.9 8.6 31 10.1 S 26 37 14 20 1012.1 1012.0 0.0
15/05:00pm 29.7 24.4 7.0 24 12.2 S 24 35 13 19 1011.8 1011.7 0.0
15/04:30pm 31.7 27.1 6.7 21 13.5 SSW 20 32 11 17 1011.5 1011.4 0.0
15/04:00pm 33.4 28.7 5.0 17 15.1 W 19 24 10 13 1011.5 1011.4 0.0
15/03:30pm 34.2 29.9 0.8 12 16.6 E 13 24 7 13 1011.8 1011.7 0.0
15/03:00pm 33.5 29.5 0.2 12 16.4 E 11 26 6 14 1012.0 1011.9 0.0
15/02:30pm 33.8 29.0 0.5 12 16.5 NE 15 24 8 13 1012.4 1012.3 0.0
15/02:00pm 33.5 28.3 0.2 12 16.4 E 17 26 9 14 1012.9 1012.8 0.0
15/01:30pm 33.1 28.3 -0.1 12 16.2 ESE 15 22 8 12 1013.4 1013.3 0.0
15/01:00pm 32.0 26.8 0.2 13 15.5 E 17 24 9 13 1013.9 1013.8 0.0
15/12:30pm 31.5 26.4 0.8 14 15.0 E 17 26 9 14 1014.5 1014.4 0.0
15/12:00pm 30.7 25.4 2.0 16 14.3 E 19 28 10 15 1015.0 1014.9 0.0
15/11:30am 28.6 23.2 1.2 17 13.2 ESE 19 28 10 15 1015.7 1015.6 0.0
15/11:00am 27.8 22.3 2.1 19 12.5 ESE 20 28 11 15 1016.1 1016.0 0.0
15/10:30am 26.8 20.7 2.7 21 11.8 E 24 33 13 18 1016.3 1016.2 0.0
15/10:00am 26.0 19.9 2.7 22 11.3 ESE 24 32 13 17 1016.7 1016.6 0.0
15/09:30am 24.6 19.1 3.8 26 10.2 ESE 22 32 12 17 1016.9 1016.8 0.0
15/09:00am 22.9 17.6 4.9 31 8.9 ESE 22 33 12 18 1017.1 1017.0 0.0
15/08:30am 21.5 16.7 5.4 35 8.0 SE 20 32 11 17 1017.3 1017.2 0.0
15/08:00am 20.0 16.1 7.1 43 6.5 SE 17 26 9 14 1017.2 1017.1 0.0
15/07:30am 17.4 13.6 7.7 53 4.9 SSE 17 24 9 13 1017.1 1017.0 0.0
15/07:00am 15.5 11.7 7.5 59 4.0 SSE 17 20 9 11 1016.9 1016.8 0.0
15/06:30am 14.5 11.1 7.8 64 3.3 SSE 15 20 8 11 1016.7 1016.6 0.0
15/06:00am 14.6 11.0 8.3 66 3.2 SSE 17 24 9 13 1016.4 1016.3 0.0
15/05:30am 14.9 11.8 8.8 67 3.1 SSE 15 22 8 12 1016.1 1016.0 0.0
15/05:00am 15.1 12.1 9.2 68 3.0 SSE 15 22 8 12 1016.1 1016.0 0.0
15/04:30am 15.5 12.2 9.6 68 3.1 SSE 17 22 9 12 1016.0 1015.9 0.0
15/04:00am 15.8 12.1 9.5 66 3.3 SSE 19 26 10 14 1015.8 1015.7 0.0
15/03:30am 16.1 12.3 9.8 66 3.3 SSE 20 30 11 16 1015.7 1015.6 0.0
15/03:00am 16.3 12.6 10.2 67 3.2 SSE 20 30 11 16 1015.7 1015.6 0.0
15/02:30am 16.5 12.9 10.4 67 3.2 SSE 20 30 11 16 1015.9 1015.8 0.0
15/02:00am 16.9 13.3 10.5 66 3.4 SSE 20 28 11 15 1016.1 1016.0 0.0
15/01:30am 17.0 13.4 10.6 66 3.4 SSE 20 28 11 15 1016.2 1016.1 0.0
15/01:00am 17.4 14.0 11.2 67 3.4 SSE 20 30 11 16 1016.2 1016.1 0.0
15/12:30am 17.8 14.1 11.4 66 3.5 SSE 22 30 12 16 1016.3 1016.2 0.0
15/12:00am 18.2 14.5 11.5 65 3.7 SSE 22 32 12 17 1016.4 1016.3 0.0
 
Date/Time
WST
Temp
°C
App
Temp
°C
Dew
Point
Rel
Hum
%
Delta-T
°C
Wind Press
QNH
hPa
Press
MSL
hPa
Rain
since 9 am
mm
Dir
 
Spd
km/h
Gust
km/h
Spd
kts
Gust
kts
14/11:30pm 18.6 15.0 11.9 65 3.7 SSE 22 32 12 17 1016.5 1016.4 0.0
14/11:00pm 18.9 15.0 12.2 65 3.7 SSE 24 32 13 17 1016.6 1016.5 0.0
14/10:30pm 19.4 15.7 12.7 65 3.8 S 24 35 13 19 1016.8 1016.7 0.0
14/10:00pm 19.6 16.5 13.3 67 3.6 S 22 35 12 19 1017.0 1016.9 0.0
14/09:30pm 19.8 16.6 14.2 70 3.2 S 24 35 13 19 1017.0 1016.9 0.0
14/09:00pm 20.0 16.2 14.6 71 3.1 S 28 41 15 22 1017.0 1016.9 0.0
14/08:30pm 20.1 15.9 14.7 71 3.2 S 30 43 16 23 1016.9 1016.8 0.0
14/08:00pm 20.2 16.3 14.3 69 3.4 S 28 41 15 22 1016.9 1016.8 0.0
14/07:30pm 20.3 15.9 14.0 67 3.6 S 30 39 16 21 1016.6 1016.5 0.0
14/07:00pm 20.8 15.9 13.7 64 4.1 S 32 54 17 29 1016.3 1016.2 0.0
14/06:30pm 21.3 18.6 14.7 66 3.9 S 22 30 12 16 1016.2 1016.1 0.0
14/06:00pm 22.4 18.5 14.3 60 4.7 S 28 39 15 21 1016.1 1016.0 0.0
14/05:30pm 23.8 18.6 12.8 50 6.3 S 32 43 17 23 1016.1 1016.0 0.0
14/05:00pm 25.2 19.6 11.4 42 7.8 S 32 43 17 23 1016.0 1015.9 0.0
14/04:30pm 26.5 21.0 10.6 37 8.9 S 30 43 16 23 1015.9 1015.8 0.0
14/04:00pm 27.4 21.7 9.7 33 9.8 SSW 30 39 16 21 1015.7 1015.6 0.0
14/03:30pm 28.7 22.6 6.7 25 11.7 S 28 37 15 20 1015.8 1015.7 0.0
14/03:00pm 28.5 22.6 7.7 27 11.2 SSW 28 35 15 19 1016.0 1015.9 0.0
14/02:30pm 29.3 23.9 7.8 26 11.7 S 26 39 14 21 1016.3 1016.2 0.0
14/02:14pm 28.5 22.6 7.7 27 11.2 S 28 46 15 25 1016.4 1016.3 0.0
14/02:00pm 28.3 22.5 8.1 28 11.0 SSW 28 39 15 21 1016.5 1016.4 0.0
14/01:30pm 28.9 23.3 3.7 20 12.7 SE 22 32 12 17 1017.0 1016.9 0.0
14/01:00pm 28.6 22.8 4.2 21 12.4 SSE 24 33 13 18 1017.4 1017.3 0.0
14/12:30pm 28.2 22.9 5.1 23 11.9 SE 22 37 12 20 1017.8 1017.7 0.0
14/12:00pm 27.1 22.0 7.5 29 10.5 SE 24 32 13 17 1018.3 1018.3 0.0
14/11:30am 26.1 22.1 9.0 34 9.3 SE 20 30 11 16 1018.6 1018.6 0.0
14/11:00am 24.8 20.5 9.5 38 8.3 SE 22 35 12 19 1019.0 1019.0 0.0
14/10:30am 24.2 20.6 10.5 42 7.6 SE 20 30 11 16 1019.4 1019.4 0.0
14/10:00am 23.5 19.9 10.6 44 7.1 SE 20 30 11 16 1019.7 1019.7 0.0
14/09:30am 21.7 18.2 10.8 50 6.0 SE 20 30 11 16 1020.0 1020.0 0.0
14/09:00am 20.6 17.1 11.0 54 5.3 SE 20 30 11 16 1019.9 1019.9 0.0
14/08:30am 19.7 15.8 10.9 57 4.8 SE 22 32 12 17 1019.7 1019.7 0.0
14/08:00am 19.1 15.3 11.2 60 4.3 SSE 22 32 12 17 1019.7 1019.7 0.0
14/07:30am 17.9 14.3 11.7 67 3.4 SSE 22 32 12 17 1019.5 1019.5 0.0
14/07:00am 16.7 14.0 11.8 73 2.7 SSE 17 24 9 13 1019.2 1019.2 0.0
14/06:30am 16.0 12.7 11.6 75 2.4 S 20 26 11 14 1018.9 1018.9 0.0
14/06:00am 16.0 12.1 12.2 78 2.1 SSE 24 35 13 19 1018.8 1018.8 0.0
14/05:30am 16.1 12.3 12.3 78 2.1 SSE 24 32 13 17 1018.8 1018.8 0.0
14/05:00am 16.4 12.9 12.2 76 2.3 SSE 22 33 12 18 1018.6 1018.6 0.0
14/04:30am 16.5 12.7 12.3 76 2.3 SSE 24 35 13 19 1018.3 1018.3 0.0
14/04:00am 16.4 12.5 12.0 75 2.4 SSE 24 32 13 17 1018.1 1018.1 0.0
14/03:30am 16.4 12.8 12.0 75 2.4 SSE 22 32 12 17 1018.0 1017.9 0.0
14/03:00am 16.7 14.0 12.8 78 2.2 SSE 19 28 10 15 1018.1 1018.1 0.0
14/02:30am 17.0 14.2 13.1 78 2.2 SSE 20 30 11 16 1018.2 1018.2 0.0
14/02:00am 17.3 14.1 13.0 76 2.4 SSE 22 30 12 16 1018.5 1018.5 0.0
14/01:30am 17.4 14.3 12.1 71 2.9 SSE 20 30 11 16 1018.4 1018.4 0.0
14/01:00am 17.6 13.5 11.4 67 3.4 S 24 33 13 18 1018.3 1018.3 0.0
14/12:30am 17.8 14.2 12.9 73 2.7 S 24 35 13 19 1018.5 1018.5 0.0
14/12:00am 18.0 15.0 13.7 76 2.4 SSE 22 32 12 17 1018.6 1018.6 0.0
 
Date/Time
WST
Temp
°C
App
Temp
°C
Dew
Point
Rel
Hum
%
Delta-T
°C
Wind Press
QNH
hPa
Press
MSL
hPa
Rain
since 9 am
mm
Dir
 
Spd
km/h
Gust
km/h
Spd
kts
Gust
kts
13/11:30pm 18.3 15.3 13.8 75 2.6 S 22 32 12 17 1018.5 1018.5 0.0
13/11:00pm 18.5 15.1 13.8 74 2.7 S 24 35 13 19 1018.3 1018.3 0.0
13/10:30pm 18.6 15.7 13.9 74 2.7 S 22 37 12 20 1018.4 1018.4 0.0
13/10:00pm 18.8 14.7 13.9 73 2.8 S 28 39 15 21 1018.7 1018.7 0.0
13/09:30pm 19.0 14.6 14.1 73 2.8 S 30 43 16 23 1018.8 1018.8 0.0
13/09:00pm 19.0 15.4 14.3 74 2.7 S 26 39 14 21 1018.7 1018.7 0.0
13/08:30pm 19.3 15.7 14.1 72 3.0 S 26 39 14 21 1018.8 1018.8 0.0
13/08:00pm 19.5 16.2 13.9 70 3.2 S 24 32 13 17 1018.8 1018.8 0.0
13/07:30pm 19.9 16.1 13.6 67 3.6 S 26 35 14 19 1018.6 1018.6 0.0
13/07:00pm 20.3 16.3 13.0 63 4.1 S 26 39 14 21 1018.5 1018.5 0.0
13/06:30pm 20.9 16.5 11.8 56 5.1 S 26 39 14 21 1018.5 1018.5 0.0
13/06:00pm 22.0 17.4 11.1 50 6.0 S 26 35 14 19 1018.5 1018.5 0.0
13/05:30pm 23.4 18.9 10.1 43 7.3 SSW 24 33 13 18 1018.3 1018.3 0.0
13/05:00pm 24.3 19.5 8.7 37 8.4 SSW 24 32 13 17 1018.0 1017.9 0.0
13/04:30pm 24.8 19.3 9.1 37 8.5 SSW 28 35 15 19 1018.0 1017.9 0.0
13/04:00pm 25.4 20.1 9.7 37 8.6 SSW 28 41 15 22 1017.8 1017.7 0.0
13/03:30pm 26.0 20.7 8.5 33 9.5 SSW 26 33 14 18 1017.7 1017.6 0.0

Other Formats:

Comma delimited format used in spreadsheet applications
http://www.bom.gov.au/fwo/IDW60801/IDW60801.95402.axf

JavaScript Object Notation format (JSON) in row-major order
http://www.bom.gov.au/fwo/IDW60801/IDW60801.95402.json